Airfield :
LOGIN :

Register | Disclaimer

   EN    FR    IT 

 










Legend :    VFR   Marginal VFR   IFR   Intensive IFR   Very Intensive IFR
Visi :
Ceiling :
>= 8 km
>= 3000ft
5 to 8 km
1000 to 3000 ft
1500m to 5 km
500 to 1000 ft
800 to 1500m
200 to 500 ft
< 800m
< 200 ft
Symbols :   Thunderstorms  Fog  Heavy snow  Heavy precipitations  Wind > 20 kt
SIGMETs :     Misc.  Thunderstorms  Icing  Turbulence  Mountain Waves  Volcanic Ashes






- Airport Elevation : 919 ft
- IATA code : AZR


DAUA - Touat Cheikh Sidi Mohamed Belk

CURRENT METAR :
  • 072300Z 02012KT CAVOK 34/M03 Q1011

EXPIRED METARs :
  • 072200Z 01015KT CAVOK 35/M03 Q1011
  • 072100Z 01013KT CAVOK 36/// Q1010

TAF TAF DAUA
Valid from the 07 at 18:00 until the 08 at 18:00 UTC


071700Z 0718/0818 04014KT 8000 NSC
PROB30 0718/0724 04024KT 4000 DRSA
PROB40
TEMPO 0808/0814 04020G30KT 1200 BLSA



MET'MAP, your aeronautical weather chart ! - Copyright ORBIFLY December 2007 - Disclaimer

ORBIFLY MET'MAP TEAM :

Programming & Development : Alexandra Zaïnal
Concept & original design : Baudouin d'Aumeries
Assistance for programming : Marc-Olivier Méhu
Technical & hardware support : Manuel Goepfert

Contact : metmap@orbifly.com




SOURCES & CREDITS :

   NOAA